Time;durP1;ratioP1;P1;durP2;ratioP2;P2;SDS_P1;SDS_P2;PMS_P1;PMS_P2;Temp;Humidity;BMP_temperature;BMP_pressure;BME280_temperature;BME280_humidity;BME280_pressure;Samples;Min_cycle;Max_cycle;Signal;HPM_P1;HPM_P2
2023/02/09 00:00:11;;;;;;;1999.90;999.90;;;;;;;-1.77;89.07;100063.09;5010003;28;20382;-76
2023/02/09 00:02:37;;;;;;;1999.90;999.90;;;;;;;-1.78;89.38;100072.16;5010158;28;20485;-75
2023/02/09 00:05:03;;;;;;;1999.90;999.90;;;;;;;-1.85;89.80;100068.47;5010021;28;20542;-76
2023/02/09 00:07:28;;;;;;;1999.90;999.90;;;;;;;-1.78;88.99;100064.94;5009899;28;20129;-75
2023/02/09 00:09:54;;;;;;;1999.90;999.90;;;;;;;-1.86;88.86;100069.47;5011837;28;20026;-76
2023/02/09 00:15:25;;;;;;;;;;;;;;;-1.81;89.38;100070.63;5010914;28;20041;-76
2023/02/09 00:17:50;;;;;;;1999.90;999.90;;;;;;;-1.80;88.64;100076.84;5008003;28;20043;-75
2023/02/09 00:20:16;;;;;;;1999.90;999.90;;;;;;;-1.91;89.95;100058.41;4989585;28;20465;-76
2023/02/09 00:22:41;;;;;;;1999.90;999.90;;;;;;;-1.86;90.31;100074.81;5009585;28;20022;-75
2023/02/09 00:25:07;;;;;;;1999.90;999.90;;;;;;;-1.89;90.67;100072.47;5009911;28;20033;-76
2023/02/09 00:27:34;;;;;;;1999.90;999.90;;;;;;;-1.89;90.47;100077.84;5009393;28;20038;-75
2023/02/09 00:30:00;;;;;;;1999.90;999.90;;;;;;;-1.85;88.35;100073.84;5009484;28;20040;-75
2023/02/09 00:32:25;;;;;;;1999.90;999.90;;;;;;;-1.86;88.41;100082.88;5009524;28;20475;-76
2023/02/09 00:34:50;;;;;;;1999.90;999.90;;;;;;;-1.92;89.02;100070.97;5009404;28;20500;-75
2023/02/09 00:37:16;;;;;;;1999.90;999.90;;;;;;;-1.96;89.38;100072.28;5009147;28;20026;-76
2023/02/09 00:39:41;;;;;;;1999.90;999.90;;;;;;;-1.90;90.36;100079.66;5007012;28;20046;-77
2023/02/09 00:42:06;;;;;;;1999.90;999.90;;;;;;;-1.94;90.09;100069.44;5010966;28;20018;-75
2023/02/09 00:44:36;;;;;;;1999.90;999.90;;;;;;;-1.94;90.50;100081.00;5012222;28;20030;-75
2023/02/09 00:47:03;;;;;;;1999.90;999.90;;;;;;;-1.90;89.55;100085.03;5006798;28;20065;-76
2023/02/09 00:49:28;;;;;;;1999.90;999.90;;;;;;;-1.94;89.18;100074.81;5008965;28;20022;-77
2023/02/09 00:51:54;;;;;;;1999.90;999.90;;;;;;;-2.01;89.03;100065.75;5009393;28;20026;-77
2023/02/09 00:54:20;;;;;;;1999.90;999.90;;;;;;;-1.94;89.65;100072.94;5009138;28;20109;-76
2023/02/09 00:56:45;;;;;;;1999.90;999.90;;;;;;;-2.00;89.45;100064.72;5008737;28;20029;-77
2023/02/09 00:59:11;;;;;;;1999.90;999.90;;;;;;;-2.06;91.11;100068.03;5009095;28;20036;-77
2023/02/09 01:01:37;;;;;;;1999.90;999.90;;;;;;;-2.17;92.06;100064.69;5009179;28;20030;-76
2023/02/09 01:04:03;;;;;;;1999.90;999.90;;;;;;;-2.09;91.60;100065.69;5009101;28;20072;-76
2023/02/09 01:06:29;;;;;;;1999.90;999.90;;;;;;;-2.27;92.77;100061.28;5009298;28;20088;-77
2023/02/09 01:08:54;;;;;;;1999.90;999.90;;;;;;;-2.21;91.48;100060.63;5013089;28;20030;-76
2023/02/09 01:11:20;;;;;;;1999.90;999.90;;;;;;;-2.24;92.02;100060.13;5014383;28;20108;-76
2023/02/09 01:13:45;;;;;;;1999.90;999.90;;;;;;;-2.22;91.70;100053.59;5020095;28;20034;-76
2023/02/09 01:16:15;;;;;;;1999.90;999.90;;;;;;;-2.17;91.61;100058.47;5033801;28;20064;-76
2023/02/09 01:18:40;;;;;;;1999.90;999.90;;;;;;;-2.24;92.43;100052.09;5016094;28;20053;-77
2023/02/09 01:21:11;;;;;;;1999.90;999.90;;;;;;;-2.26;93.72;100054.94;5014160;28;20056;-76
2023/02/09 01:23:36;;;;;;;1999.90;999.90;;;;;;;-2.27;93.67;100053.25;5016417;28;20026;-77
2023/02/09 01:26:07;;;;;;;1999.90;999.90;;;;;;;-2.21;94.92;100049.91;5033584;28;20091;-77
2023/02/09 01:28:32;;;;;;;1999.90;999.90;;;;;;;-2.34;95.11;100037.97;5034036;28;20030;-75
2023/02/09 01:30:58;;;;;;;1999.90;999.90;;;;;;;-2.44;96.02;100045.28;5033908;28;20032;-76
2023/02/09 01:33:23;;;;;;;1999.90;999.90;;;;;;;-2.35;95.31;100050.53;5033816;28;20482;-76
2023/02/09 01:35:49;;;;;;;1999.90;999.90;;;;;;;-2.41;95.32;100035.09;5024665;28;20034;-76
2023/02/09 01:38:14;;;;;;;1999.90;999.90;;;;;;;-2.45;95.97;100044.47;5014181;28;20088;-76
2023/02/09 01:40:46;;;;;;;1999.90;999.90;;;;;;;-2.48;96.39;100050.16;5013559;28;20026;-76
2023/02/09 01:43:12;;;;;;;1999.90;999.90;;;;;;;-2.55;96.53;100057.16;5013101;28;20103;-75
2023/02/09 01:45:47;;;;;;;1999.90;999.90;;;;;;;-2.47;95.77;100061.69;5013180;28;20029;-76
2023/02/09 01:48:13;;;;;;;1999.90;999.90;;;;;;;-2.52;95.03;100040.75;5012388;28;20084;-76
2023/02/09 01:50:42;;;;;;;1999.90;999.90;;;;;;;-2.54;95.78;100052.63;5013359;28;20045;-76
2023/02/09 01:53:09;;;;;;;1999.90;999.90;;;;;;;-2.55;95.92;100054.47;5013265;28;20013;-75
2023/02/09 01:55:44;;;;;;;1999.90;999.90;;;;;;;-2.49;96.49;100058.34;5013394;28;20497;-76
2023/02/09 01:58:14;;;;;;;1999.90;999.90;;;;;;;-2.54;96.84;100045.44;5013293;28;20164;-76
2023/02/09 02:00:40;;;;;;;1999.90;999.90;;;;;;;-2.58;96.78;100049.44;5013621;28;20083;-76
2023/02/09 02:03:13;;;;;;;1999.90;999.90;;;;;;;-2.65;97.41;100044.84;5013414;28;20061;-77
2023/02/09 02:05:42;;;;;;;1999.90;999.90;;;;;;;-2.62;96.86;100036.50;5013023;28;20099;-77
2023/02/09 02:08:17;;;;;;;1999.90;999.90;;;;;;;-2.62;96.86;100037.34;5030962;28;20112;-77
2023/02/09 02:10:42;;;;;;;1999.90;999.90;;;;;;;-2.68;97.00;100027.28;5032499;28;20029;-75
2023/02/09 02:13:08;;;;;;;1999.90;999.90;;;;;;;-2.66;97.31;100019.91;5032778;28;20037;-76
2023/02/09 02:16:09;;;;;;;1999.90;999.90;;;;;;;-2.63;96.79;100024.94;5033358;28;20587;-77
2023/02/09 02:18:41;;;;;;;1999.90;999.90;;;;;;;-2.66;97.45;100016.44;5032657;28;20486;-76
2023/02/09 02:21:36;;;;;;;1999.90;999.90;;;;;;;-2.69;97.79;100009.53;5033290;28;20109;-76
2023/02/09 02:24:17;;;;;;;1999.90;999.90;;;;;;;-2.65;97.80;100016.25;5031691;28;20144;-76
2023/02/09 02:26:51;;;;;;;1999.90;999.90;;;;;;;-2.74;97.92;100011.84;5032760;28;20107;-76
2023/02/09 02:29:35;;;;;;;1999.90;999.90;;;;;;;-2.80;98.64;100012.50;5032721;28;20039;-76
2023/02/09 02:32:28;;;;;;;1999.90;999.90;;;;;;;-2.89;99.77;100016.13;5032591;28;20034;-76
2023/02/09 02:35:10;;;;;;;1999.90;999.90;;;;;;;-2.87;99.67;100012.28;5032362;28;20120;-76
2023/02/09 02:37:47;;;;;;;1999.90;999.90;;;;;;;-2.94;100.00;100002.38;5032820;28;20025;-75
2023/02/09 02:40:22;;;;;;;1999.90;999.90;;;;;;;-2.89;100.00;100008.09;5032436;28;20021;-77
2023/02/09 02:43:06;;;;;;;1999.90;999.90;;;;;;;-2.87;100.00;100011.44;5032363;28;20029;-75
2023/02/09 02:45:49;;;;;;;1999.90;999.90;;;;;;;-2.98;100.00;99995.66;5032210;28;20041;-75
2023/02/09 02:48:43;;;;;;;1999.90;999.90;;;;;;;-2.94;100.00;99999.69;5032498;28;20021;-75
2023/02/09 02:51:18;;;;;;;1999.90;999.90;;;;;;;-2.97;100.00;99997.31;5032639;28;20025;-75
2023/02/09 02:53:53;;;;;;;1999.90;999.90;;;;;;;-3.01;100.00;99996.00;5032245;28;20030;-76
2023/02/09 02:56:28;;;;;;;1999.90;999.90;;;;;;;-3.20;100.00;99981.00;5032010;28;20528;-76
2023/02/09 02:58:56;;;;;;;1999.90;999.90;;;;;;;-3.15;100.00;99989.38;5032182;28;20025;-77
2023/02/09 03:01:26;;;;;;;1999.90;999.90;;;;;;;-3.11;100.00;99997.94;5032069;28;20278;-76
2023/02/09 03:03:53;;;;;;;1999.90;999.90;;;;;;;-3.17;100.00;99988.69;5033673;28;20021;-77
2023/02/09 03:06:18;;;;;;;1999.90;999.90;;;;;;;-3.13;100.00;99986.56;5033100;28;20117;-76
2023/02/09 03:08:55;;;;;;;1999.90;999.90;;;;;;;-3.11;100.00;99982.72;5032355;28;20117;-76
2023/02/09 03:11:25;;;;;;;1999.90;999.90;;;;;;;-3.03;100.00;99988.09;5014074;28;20030;-76
2023/02/09 03:14:15;;;;;;;1999.90;999.90;;;;;;;-3.11;100.00;99984.53;5031764;28;20079;-76
2023/02/09 03:16:50;;;;;;;1999.90;999.90;;;;;;;-3.10;100.00;99988.91;5031793;28;20033;-76
2023/02/09 03:19:39;;;;;;;1999.90;999.90;;;;;;;-3.14;100.00;99985.72;5031788;28;20161;-76
2023/02/09 03:22:19;;;;;;;1999.90;999.90;;;;;;;-3.02;100.00;99991.63;5031725;28;20033;-76
2023/02/09 03:24:44;;;;;;;1999.90;999.90;;;;;;;-3.05;100.00;99986.59;5031489;28;20029;-77
2023/02/09 03:27:17;;;;;;;1999.90;999.90;;;;;;;-3.07;100.00;99977.88;5031573;28;20562;-76
2023/02/09 03:29:46;;;;;;;1999.90;999.90;;;;;;;-3.20;100.00;99986.34;5031662;28;20459;-75
2023/02/09 03:32:13;;;;;;;1999.90;999.90;;;;;;;-3.24;100.00;99974.25;5031358;28;20025;-76
2023/02/09 03:34:39;;;;;;;1999.90;999.90;;;;;;;-3.32;100.00;99980.38;5031651;28;20405;-76
2023/02/09 03:37:04;;;;;;;1999.90;999.90;;;;;;;-3.34;100.00;99974.38;5032580;28;20033;-75
2023/02/09 03:39:29;;;;;;;1999.90;999.90;;;;;;;-3.24;100.00;99971.59;5013485;28;20053;-76
2023/02/09 03:41:55;;;;;;;1999.90;999.90;;;;;;;-3.23;100.00;99967.09;5031204;28;20025;-76
2023/02/09 03:44:26;;;;;;;1999.90;999.90;;;;;;;-3.16;100.00;99960.13;5013422;28;20116;-76
2023/02/09 03:47:02;;;;;;;1999.90;999.90;;;;;;;-3.10;100.00;99964.84;5031168;28;20430;-75
2023/02/09 03:49:32;;;;;;;1999.90;999.90;;;;;;;-3.18;100.00;99956.75;5030971;28;20120;-75
2023/02/09 03:51:59;;;;;;;1999.90;999.90;;;;;;;-3.12;100.00;99966.81;5031127;28;20155;-76
2023/02/09 03:54:25;;;;;;;1999.90;999.90;;;;;;;-3.10;100.00;99957.63;5030969;28;20041;-76
2023/02/09 03:56:51;;;;;;;1999.90;999.90;;;;;;;-3.10;100.00;99959.47;5031067;28;20029;-76
2023/02/09 03:59:16;;;;;;;1999.90;999.90;;;;;;;-3.11;100.00;99965.81;5031124;28;20492;-77
2023/02/09 04:01:42;;;;;;;1999.90;999.90;;;;;;;-3.15;100.00;99962.63;5026575;28;20475;-76
2023/02/09 04:04:07;;;;;;;1999.90;999.90;;;;;;;-3.16;100.00;99962.78;5030055;28;20113;-75
2023/02/09 04:06:34;;;;;;;1999.90;999.90;;;;;;;-3.18;100.00;99970.13;5029464;28;20493;-76
2023/02/09 04:09:01;;;;;;;1999.90;999.90;;;;;;;-3.22;100.00;99958.03;5031062;28;20152;-76
2023/02/09 04:11:26;;;;;;;1999.90;999.90;;;;;;;-3.23;100.00;99969.75;5030381;28;20103;-76
2023/02/09 04:13:52;;;;;;;1999.90;999.90;;;;;;;-3.31;100.00;99971.38;5012089;28;20038;-75
2023/02/09 04:16:17;;;;;;;1999.90;999.90;;;;;;;-3.39;100.00;99974.00;5030579;28;20025;-76
2023/02/09 04:18:43;;;;;;;1999.90;999.90;;;;;;;-3.39;100.00;99966.00;5030283;28;20026;-75
2023/02/09 04:21:09;;;;;;;1999.90;999.90;;;;;;;-3.44;100.00;99978.13;5030568;28;20021;-75
2023/02/09 04:23:34;;;;;;;1999.90;999.90;;;;;;;-3.47;100.00;99965.06;5030527;28;20068;-75
2023/02/09 04:26:00;;;;;;;1999.90;999.90;;;;;;;-3.66;100.00;99944.72;5012723;28;20033;-75
2023/02/09 04:28:25;;;;;;;1999.90;999.90;;;;;;;-3.54;100.00;99970.19;5030643;28;20021;-76
2023/02/09 04:30:55;;;;;;;1999.90;999.90;;;;;;;-3.54;100.00;99970.19;5013602;28;20124;-76
2023/02/09 04:33:23;;;;;;;1999.90;999.90;;;;;;;-3.56;100.00;99966.00;5031757;28;20033;-75
2023/02/09 04:35:48;;;;;;;1999.90;999.90;;;;;;;-3.51;100.00;99963.72;5030528;28;20029;-75
2023/02/09 04:38:18;;;;;;;1999.90;999.90;;;;;;;-3.43;100.00;99966.44;5030413;28;20410;-76
2023/02/09 04:40:44;;;;;;;1999.90;999.90;;;;;;;-3.37;100.00;99966.66;5030578;28;20120;-76
2023/02/09 04:43:10;;;;;;;1999.90;999.90;;;;;;;-3.29;100.00;99972.06;5029524;28;20083;-75
2023/02/09 04:45:38;;;;;;;1999.90;999.90;;;;;;;-3.25;100.00;99975.25;5030430;28;20382;-76
2023/02/09 04:48:03;;;;;;;1999.90;999.90;;;;;;;-3.20;100.00;99974.78;5030253;28;20040;-75
2023/02/09 04:50:29;;;;;;;1999.90;999.90;;;;;;;-3.07;100.00;99976.03;5030208;28;20037;-74
2023/02/09 04:52:54;;;;;;;1999.90;999.90;;;;;;;-3.09;100.00;99979.88;5030306;28;20109;-76
2023/02/09 04:55:19;;;;;;;1999.90;999.90;;;;;;;-3.02;100.00;99975.56;5030378;28;20124;-76
2023/02/09 05:00:48;;;;;;;1999.90;999.90;;;;;;;-3.02;100.00;99972.88;4950151;28;20514;-75
2023/02/09 05:03:14;;;;;;;1999.90;999.90;;;;;;;-3.01;100.00;99982.59;4950508;28;20181;-75
2023/02/09 05:05:40;;;;;;;1999.90;999.90;;;;;;;-2.98;100.00;99980.47;4986217;28;20050;-74
2023/02/09 05:08:06;;;;;;;1999.90;999.90;;;;;;;-2.92;100.00;99976.28;5030220;28;20037;-76
2023/02/09 05:10:32;;;;;;;1999.90;999.90;;;;;;;-2.92;100.00;99966.44;5030003;28;20033;-76
2023/02/09 05:12:58;;;;;;;1999.90;999.90;;;;;;;-2.97;100.00;99963.38;5030102;28;20026;-76
2023/02/09 05:15:23;;;;;;;1999.90;999.90;;;;;;;-2.90;100.00;99976.97;5030072;28;20028;-76
2023/02/09 05:17:49;;;;;;;1999.90;999.90;;;;;;;-3.05;100.00;99954.47;5012448;28;20559;-76
2023/02/09 05:20:14;;;;;;;1999.90;999.90;;;;;;;-3.04;100.00;99970.38;5030136;28;20038;-76
2023/02/09 05:22:40;;;;;;;1999.90;999.90;;;;;;;-2.94;100.00;99973.75;5030017;28;20398;-75
2023/02/09 05:25:06;;;;;;;1999.90;999.90;;;;;;;-2.86;100.00;99976.50;5029998;28;20033;-76
2023/02/09 05:27:31;;;;;;;1999.90;999.90;;;;;;;-2.86;100.00;99975.66;5029740;28;20076;-76
2023/02/09 05:29:56;;;;;;;1999.90;999.90;;;;;;;-2.91;100.00;99972.59;5029918;28;20510;-76
2023/02/09 05:32:22;;;;;;;1999.90;999.90;;;;;;;-3.13;99.58;99952.59;5030419;28;20025;-76
2023/02/09 05:34:47;;;;;;;1999.90;999.90;;;;;;;-3.05;99.93;99971.38;5030126;28;20053;-76
2023/02/09 05:37:13;;;;;;;1999.90;999.90;;;;;;;-3.13;98.65;99979.34;5030014;28;20466;-76
2023/02/09 05:39:38;;;;;;;1999.90;999.90;;;;;;;-3.18;98.04;99975.47;5030151;28;21493;-77
2023/02/09 05:42:15;;;;;;;1999.90;999.90;;;;;;;-3.31;97.88;99976.72;5029696;28;20026;-76
2023/02/09 05:44:46;;;;;;;1999.90;999.90;;;;;;;-3.40;97.95;99977.66;5029874;28;20025;-76
2023/02/09 05:47:13;;;;;;;1999.90;999.90;;;;;;;-3.39;98.47;99978.53;5029707;28;20470;-75
2023/02/09 05:49:38;;;;;;;1999.90;999.90;;;;;;;-3.32;98.30;99977.72;5029746;28;20053;-77
2023/02/09 05:52:04;;;;;;;1999.90;999.90;;;;;;;-3.37;97.87;99968.50;5029730;28;20010;-76
2023/02/09 05:54:29;;;;;;;1999.90;999.90;;;;;;;-3.30;97.62;99978.41;5031646;28;20493;-74
2023/02/09 05:56:55;;;;;;;1999.90;999.90;;;;;;;-3.25;96.72;99970.75;5033384;28;20025;-76
2023/02/09 05:59:20;;;;;;;1999.90;999.90;;;;;;;-3.27;96.23;99987.97;5034882;28;20116;-78
2023/02/09 06:01:45;;;;;;;1999.90;999.90;;;;;;;-3.36;96.46;99976.38;5033497;28;20021;-76
2023/02/09 06:04:11;;;;;;;1999.90;999.90;;;;;;;-3.34;97.01;99977.03;5033551;28;20026;-76
2023/02/09 06:06:36;;;;;;;1999.90;999.90;;;;;;;-3.26;96.27;99995.81;5033258;28;20033;-77
2023/02/09 06:09:02;;;;;;;1999.90;999.90;;;;;;;-3.23;96.20;100001.88;5033141;28;20104;-77
2023/02/09 06:11:28;;;;;;;1999.90;999.90;;;;;;;-3.37;95.51;99996.09;5032797;28;20028;-76
2023/02/09 06:13:53;;;;;;;1999.90;999.90;;;;;;;-3.28;95.31;99992.47;5033065;28;20018;-77
2023/02/09 06:16:18;;;;;;;1999.90;999.90;;;;;;;-3.33;94.90;99991.25;5032754;28;20033;-76
2023/02/09 06:18:44;;;;;;;1999.90;999.90;;;;;;;-3.28;95.09;99997.81;5032882;28;20021;-76
2023/02/09 06:21:10;;;;;;;1999.90;999.90;;;;;;;-3.29;95.17;100000.66;5023400;28;20038;-76
2023/02/09 06:23:36;;;;;;;1999.90;999.90;;;;;;;-3.09;94.63;100006.63;5025310;28;20022;-76
2023/02/09 06:26:09;;;;;;;1999.90;999.90;;;;;;;-3.03;93.76;100003.31;4995141;28;20029;-76
2023/02/09 06:28:34;;;;;;;1999.90;999.90;;;;;;;-3.02;94.34;100003.16;5012563;28;20037;-76
2023/02/09 06:31:00;;;;;;;1999.90;999.90;;;;;;;-2.93;93.66;99998.69;5012900;28;20038;-77
2023/02/09 06:33:25;;;;;;;1999.90;999.90;;;;;;;-2.91;93.46;100012.75;5013389;28;20026;-76
2023/02/09 06:35:50;;;;;;;1999.90;999.90;;;;;;;-2.92;93.13;100011.94;5012785;28;20502;-77
2023/02/09 06:38:16;;;;;;;1999.90;999.90;;;;;;;-2.77;92.04;100007.66;5012656;28;20084;-77
2023/02/09 06:40:41;;;;;;;1999.90;999.90;;;;;;;-2.78;92.03;100021.19;5012685;28;20070;-77
2023/02/09 06:43:06;;;;;;;1999.90;999.90;;;;;;;-2.73;91.61;100030.44;5012587;28;20092;-76
2023/02/09 06:45:32;;;;;;;1999.90;999.90;;;;;;;-2.76;91.55;100021.91;5012480;28;20034;-77
2023/02/09 06:47:57;;;;;;;1999.90;999.90;;;;;;;-2.67;91.21;100026.28;5012898;28;20053;-74
2023/02/09 06:50:22;;;;;;;1999.90;999.90;;;;;;;-2.64;90.17;100019.78;5021852;28;20037;-76
2023/02/09 06:52:48;;;;;;;1999.90;999.90;;;;;;;-2.54;89.93;100023.16;5020106;28;20433;-75
2023/02/09 06:55:13;;;;;;;1999.90;999.90;;;;;;;-2.60;89.09;100013.91;5020306;28;20145;-77
2023/02/09 06:57:39;;;;;;;1999.90;999.90;;;;;;;-2.50;88.91;100024.50;5012574;28;20041;-76
2023/02/09 07:00:07;;;;;;;1999.90;999.90;;;;;;;-2.34;87.72;100035.28;5012433;28;20077;-76
2023/02/09 07:02:33;;;;;;;1999.90;999.90;;;;;;;-2.36;86.68;100037.31;5019659;28;20029;-75
2023/02/09 07:04:58;;;;;;;1999.90;999.90;;;;;;;-2.40;86.28;100031.44;5031660;28;20120;-75
2023/02/09 07:07:24;;;;;;;1999.90;999.90;;;;;;;-2.37;85.44;100035.63;5015076;28;20559;-76
2023/02/09 07:09:49;;;;;;;1999.90;999.90;;;;;;;-2.33;84.62;100032.47;4993374;28;20447;-77
2023/02/09 07:12:14;;;;;;;1999.90;999.90;;;;;;;-2.31;84.34;100041.16;5011094;28;20030;-77
2023/02/09 07:14:40;;;;;;;1999.90;999.90;;;;;;;-2.42;83.72;100011.16;5010811;28;20453;-76
2023/02/09 07:17:05;;;;;;;1999.90;999.90;;;;;;;-2.38;83.42;100016.00;5010643;28;20072;-76
2023/02/09 07:19:31;;;;;;;1999.90;999.90;;;;;;;-2.19;83.32;100039.88;5010642;28;20030;-76
2023/02/09 07:21:56;;;;;;;1999.90;999.90;;;;;;;-2.10;82.47;100034.56;5012967;28;20359;-75
2023/02/09 07:24:23;;;;;;;1999.90;999.90;;;;;;;-2.09;81.71;100033.53;5015748;28;20117;-77
2023/02/09 07:26:48;;;;;;;1999.90;999.90;;;;;;;-2.09;81.09;100020.13;5023235;28;20183;-76
2023/02/09 07:29:14;;;;;;;1999.90;999.90;;;;;;;-2.08;80.25;100024.50;5014590;28;20513;-76
2023/02/09 07:31:39;;;;;;;1999.90;999.90;;;;;;;-2.05;79.69;100030.38;5025065;28;20079;-76
2023/02/09 07:34:04;;;;;;;1999.90;999.90;;;;;;;-1.95;79.64;100032.91;5030283;28;20025;-76
2023/02/09 07:36:30;;;;;;;1999.90;999.90;;;;;;;-1.98;79.62;100030.56;5030934;28;20033;-75
2023/02/09 07:38:55;;;;;;;1999.90;999.90;;;;;;;-1.91;79.42;100032.41;5030085;28;20065;-76
2023/02/09 07:41:25;;;;;;;1999.90;999.90;;;;;;;-1.83;79.09;100036.97;5029879;28;20493;-75
2023/02/09 07:43:51;;;;;;;1999.90;999.90;;;;;;;-1.74;78.73;100044.00;5013908;28;20056;-75
2023/02/09 07:46:19;;;;;;;1999.90;999.90;;;;;;;-1.66;78.68;100044.03;5031019;28;20478;-75
2023/02/09 07:48:46;;;;;;;1999.90;999.90;;;;;;;-1.70;77.98;100040.00;5031380;28;20501;-75
2023/02/09 07:51:15;;;;;;;1999.90;999.90;;;;;;;-1.75;77.81;100053.88;5031213;28;20033;-77
2023/02/09 07:53:42;;;;;;;1999.90;999.90;;;;;;;-1.81;78.09;100037.63;5013664;28;20116;-76
2023/02/09 07:56:07;;;;;;;1999.90;999.90;;;;;;;-1.77;78.40;100030.94;5013268;28;20521;-75
2023/02/09 07:58:33;;;;;;;1999.90;999.90;;;;;;;-1.56;78.54;100044.69;5031084;28;20109;-76
2023/02/09 08:01:07;;;;;;;1999.90;999.90;;;;;;;-1.47;78.45;100041.00;5031107;28;20108;-75
2023/02/09 08:03:34;;;;;;;1999.90;999.90;;;;;;;-1.40;77.69;100031.28;5030944;28;20508;-75
2023/02/09 08:06:11;;;;;;;1999.90;999.90;;;;;;;-1.37;77.34;100047.06;5030564;28;20029;-75
2023/02/09 08:08:37;;;;;;;1999.90;999.90;;;;;;;-1.32;77.42;100038.53;5013114;28;20103;-74
2023/02/09 08:11:04;;;;;;;1999.90;999.90;;;;;;;-1.35;77.37;100050.44;5030658;28;20545;-76
2023/02/09 08:13:36;;;;;;;1999.90;999.90;;;;;;;-1.24;77.36;100036.66;5031182;28;20049;-75
2023/02/09 08:16:04;;;;;;;1999.90;999.90;;;;;;;-1.16;76.72;100039.34;5030775;28;20062;-75
2023/02/09 08:18:39;;;;;;;1999.90;999.90;;;;;;;-1.10;75.91;100032.47;5029792;28;20037;-76
2023/02/09 08:21:08;;;;;;;1999.90;999.90;;;;;;;-0.98;76.13;100041.00;5030992;28;20041;-75
2023/02/09 08:23:35;;;;;;;1999.90;999.90;;;;;;;-0.83;75.17;100044.66;5031052;28;20066;-76
2023/02/09 08:26:05;;;;;;;1999.90;999.90;;;;;;;-0.63;74.37;100040.59;5030651;28;20056;-77
2023/02/09 08:28:31;;;;;;;1999.90;999.90;;;;;;;-0.56;73.17;100042.41;5031026;28;20393;-75
2023/02/09 08:30:57;;;;;;;1999.90;999.90;;;;;;;-0.47;72.01;100040.53;5030592;28;20033;-75
2023/02/09 08:33:22;;;;;;;1999.90;999.90;;;;;;;-0.46;70.37;100036.84;5030652;28;20026;-77
2023/02/09 08:35:51;;;;;;;1999.90;999.90;;;;;;;-0.32;70.27;100043.34;5030507;28;20048;-77
2023/02/09 08:38:17;;;;;;;1999.90;999.90;;;;;;;-0.16;69.68;100041.41;5030236;28;20041;-77
2023/02/09 08:40:43;;;;;;;1999.90;999.90;;;;;;;-0.20;68.34;100037.41;5030534;28;20055;-76
2023/02/09 08:43:09;;;;;;;1999.90;999.90;;;;;;;-0.17;68.29;100039.75;5030283;28;20029;-75
2023/02/09 08:45:39;;;;;;;1999.90;999.90;;;;;;;0.05;66.74;100045.34;5030189;28;20114;-76
2023/02/09 08:48:05;;;;;;;1999.90;999.90;;;;;;;0.10;66.16;100037.59;5030409;28;20037;-75
2023/02/09 08:50:32;;;;;;;1999.90;999.90;;;;;;;0.13;65.57;100042.59;5030735;28;20025;-75
2023/02/09 08:52:58;;;;;;;1999.90;999.90;;;;;;;0.25;65.86;100047.41;5031937;28;20026;-75
2023/02/09 08:55:23;;;;;;;1999.90;999.90;;;;;;;0.44;69.70;100024.56;5032143;28;20039;-74
2023/02/09 08:57:49;;;;;;;1999.90;999.90;;;;;;;0.51;66.05;100041.69;5030419;28;20021;-78
2023/02/09 09:00:15;;;;;;;1999.90;999.90;;;;;;;0.79;64.60;100034.75;5030093;28;20032;-75
2023/02/09 09:02:40;;;;;;;1999.90;999.90;;;;;;;0.63;64.09;100034.06;5030359;28;20478;-75
2023/02/09 09:05:06;;;;;;;1999.90;999.90;;;;;;;1.07;66.05;100038.53;5030226;28;20041;-75
2023/02/09 09:07:31;;;;;;;1999.90;999.90;;;;;;;1.16;62.43;100036.56;5030241;28;20061;-75
2023/02/09 09:09:57;;;;;;;1999.90;999.90;;;;;;;1.13;61.97;100036.13;5030299;28;20037;-75
2023/02/09 09:12:22;;;;;;;1999.90;999.90;;;;;;;1.12;61.10;100034.44;5030137;28;20022;-75
2023/02/09 09:14:47;;;;;;;1999.90;999.90;;;;;;;1.00;60.92;100032.19;5030043;28;20026;-76
2023/02/09 09:17:13;;;;;;;1999.90;999.90;;;;;;;0.91;60.68;100032.44;5030373;28;20113;-75
2023/02/09 09:19:38;;;;;;;1999.90;999.90;;;;;;;0.92;60.58;100026.03;5030225;28;20029;-75
2023/02/09 09:22:03;;;;;;;1999.90;999.90;;;;;;;1.04;60.67;100033.50;5030733;28;20033;-74
2023/02/09 09:24:30;;;;;;;1999.90;999.90;;;;;;;0.98;60.57;100022.63;5030593;28;20025;-74
2023/02/09 09:26:56;;;;;;;1999.90;999.90;;;;;;;1.12;59.88;100035.28;5030228;28;20025;-74
2023/02/09 09:29:21;;;;;;;1999.90;999.90;;;;;;;1.21;59.82;100028.81;5031819;28;20502;-75
2023/02/09 09:31:47;;;;;;;1999.90;999.90;;;;;;;1.34;58.53;100030.84;5033596;28;20041;-75
2023/02/09 09:34:12;;;;;;;1999.90;999.90;;;;;;;1.48;58.30;100046.19;5033673;28;20104;-74
2023/02/09 09:36:38;;;;;;;1999.90;999.90;;;;;;;1.38;57.97;100032.16;5033537;28;20440;-75
2023/02/09 09:39:03;;;;;;;1999.90;999.90;;;;;;;1.43;58.35;100040.53;5033575;28;20069;-74
2023/02/09 09:41:36;;;;;;;1999.90;999.90;;;;;;;1.49;57.74;100037.09;5033371;28;20021;-75
2023/02/09 09:44:07;;;;;;;1999.90;999.90;;;;;;;1.72;56.94;100037.84;5033478;28;20036;-75
2023/02/09 09:46:40;;;;;;;1999.90;999.90;;;;;;;1.77;56.61;100035.41;5033604;28;20059;-75
2023/02/09 09:49:17;;;;;;;1999.90;999.90;;;;;;;1.88;55.63;100037.59;5033627;28;20025;-76
2023/02/09 09:51:46;;;;;;;1999.90;999.90;;;;;;;2.07;55.13;100042.41;5015818;28;20486;-76
2023/02/09 09:54:17;;;;;;;1999.90;999.90;;;;;;;2.03;54.54;100041.16;5033986;28;20029;-76
2023/02/09 09:56:43;;;;;;;1999.90;999.90;;;;;;;1.94;55.04;100036.84;5033284;28;20041;-76
2023/02/09 09:59:24;;;;;;;1999.90;999.90;;;;;;;2.07;54.62;100046.97;5033236;28;20030;-75
2023/02/09 10:01:53;;;;;;;1999.90;999.90;;;;;;;2.10;54.95;100038.50;5033247;28;20026;-76
2023/02/09 10:04:19;;;;;;;1999.90;999.90;;;;;;;2.38;54.36;100027.84;5033282;28;20029;-75
2023/02/09 10:06:48;;;;;;;1999.90;999.90;;;;;;;2.42;54.44;100034.50;5033250;28;20068;-76
2023/02/09 10:09:51;;;;;;;1999.90;999.90;;;;;;;2.51;53.59;100023.38;5032959;28;20522;-75
2023/02/09 10:12:19;;;;;;;1999.90;999.90;;;;;;;2.60;53.40;100029.53;4992148;28;20030;-75
2023/02/09 10:14:45;;;;;;;1999.90;999.90;;;;;;;2.57;53.26;100033.41;5033233;28;20037;-75
2023/02/09 10:17:10;;;;;;;1999.90;999.90;;;;;;;2.78;52.71;100024.50;5032994;28;20036;-75
2023/02/09 10:19:35;;;;;;;1999.90;999.90;;;;;;;2.97;52.22;100023.00;5033620;28;20052;-76
2023/02/09 10:22:01;;;;;;;1999.90;999.90;;;;;;;2.93;52.20;100009.03;5035659;28;20033;-77
2023/02/09 10:24:30;;;;;;;1999.90;999.90;;;;;;;3.81;50.29;100021.88;5033010;28;20071;-75
2023/02/09 10:27:23;;;;;;;1999.90;999.90;;;;;;;4.11;49.04;100011.59;5032924;28;20089;-76
2023/02/09 10:29:48;;;;;;;1999.90;999.90;;;;;;;3.83;49.10;100013.53;5032370;28;20396;-76
2023/02/09 10:32:26;;;;;;;1999.90;999.90;;;;;;;3.88;49.76;100016.50;5032538;28;20037;-76
2023/02/09 10:34:55;;;;;;;1999.90;999.90;;;;;;;3.69;49.58;100012.66;5032552;28;20081;-76
2023/02/09 10:37:33;;;;;;;1999.90;999.90;;;;;;;3.53;50.53;100013.00;5032423;28;20058;-75
2023/02/09 10:40:15;;;;;;;1999.90;999.90;;;;;;;3.62;49.91;100009.09;5031576;28;20041;-75
2023/02/09 10:43:01;;;;;;;1999.90;999.90;;;;;;;3.61;49.96;100005.53;5032724;28;20040;-76
2023/02/09 10:45:44;;;;;;;1999.90;999.90;;;;;;;4.07;48.90;100005.75;5032299;28;20036;-76
2023/02/09 10:48:12;;;;;;;1999.90;999.90;;;;;;;4.19;48.01;100001.44;5032246;28;20029;-75
2023/02/09 10:50:53;;;;;;;1999.90;999.90;;;;;;;5.05;47.11;99994.22;5032330;28;20108;-74
2023/02/09 10:53:29;;;;;;;1999.90;999.90;;;;;;;6.65;43.02;99992.41;5032759;28;20160;-74
2023/02/09 10:56:22;;;;;;;1999.90;999.90;;;;;;;8.08;39.55;99994.78;5031995;28;20041;-74
2023/02/09 10:59:01;;;;;;;1999.90;999.90;;;;;;;7.66;38.77;99981.25;5023831;28;20103;-76
2023/02/09 11:01:31;;;;;;;1999.90;999.90;;;;;;;7.02;39.91;99966.19;5031994;28;20061;-76